createdAt,value
2023-12-10T00:04:03.654Z,24.45
2023-12-10T00:09:07.687Z,22.65
2023-12-10T00:14:09.488Z,22.83
2023-12-10T00:19:11.689Z,25.00
2023-12-10T00:24:13.634Z,25.00
2023-12-10T00:29:15.593Z,25.08
2023-12-10T00:34:17.524Z,26.48
2023-12-10T00:39:19.236Z,24.13
2023-12-10T00:44:21.290Z,24.45
2023-12-10T00:49:23.327Z,24.27
2023-12-10T00:54:25.646Z,24.92
2023-12-10T00:59:27.633Z,24.05
2023-12-10T01:04:29.521Z,22.33
2023-12-10T01:09:31.511Z,23.55
2023-12-10T01:14:33.327Z,22.13
2023-12-10T01:19:35.381Z,21.15
2023-12-10T01:24:37.411Z,20.02
2023-12-10T01:29:39.308Z,21.15
2023-12-10T01:34:44.513Z,21.83
2023-12-10T01:39:46.614Z,22.08
2023-12-10T01:44:48.589Z,21.63
2023-12-10T01:49:50.538Z,21.15
2023-12-10T01:54:52.270Z,19.65
2023-12-10T01:59:54.536Z,19.98
2023-12-10T02:04:59.083Z,19.58
2023-12-10T02:10:01.595Z,20.27
2023-12-10T02:15:33.204Z,18.38
2023-12-10T02:20:35.034Z,17.90
2023-12-10T02:25:40.789Z,18.08
2023-12-10T02:30:43.292Z,19.00
2023-12-10T02:35:45.358Z,17.85
2023-12-10T02:40:47.043Z,18.02
2023-12-10T02:45:49.242Z,18.90
2023-12-10T02:50:51.776Z,19.27
2023-12-10T02:55:53.522Z,19.25
2023-12-10T03:00:55.800Z,22.00
2023-12-10T03:05:58.208Z,21.83
2023-12-10T03:10:59.971Z,22.92
2023-12-10T03:16:01.863Z,22.05
2023-12-10T03:21:04.481Z,21.08
2023-12-10T03:26:06.375Z,21.80
2023-12-10T03:31:08.336Z,21.98
2023-12-10T03:36:10.431Z,21.38
2023-12-10T03:41:12.199Z,19.95
2023-12-10T03:46:13.961Z,21.00
2023-12-10T03:51:15.842Z,20.35
2023-12-10T03:56:17.590Z,20.48
2023-12-10T04:01:19.996Z,20.17
2023-12-10T04:06:22.137Z,18.85
2023-12-10T04:11:26.983Z,20.70
2023-12-10T04:16:31.045Z,20.67
2023-12-10T04:21:33.280Z,18.20
2023-12-10T04:26:35.413Z,19.75
2023-12-10T04:31:38.379Z,19.45
2023-12-10T04:36:40.313Z,19.17
2023-12-10T04:41:42.297Z,19.20
2023-12-10T04:46:44.312Z,18.73
2023-12-10T04:51:46.145Z,19.13
2023-12-10T04:56:47.879Z,19.70
2023-12-10T05:01:50.088Z,19.45
2023-12-10T05:06:51.979Z,20.77
2023-12-10T05:11:53.753Z,20.40
2023-12-10T05:16:55.638Z,18.55
2023-12-10T05:21:57.894Z,20.27
2023-12-10T05:26:59.889Z,20.20
2023-12-10T05:32:01.650Z,20.17
2023-12-10T05:37:03.612Z,22.08
2023-12-10T05:42:05.791Z,20.70
2023-12-10T05:47:07.616Z,21.63
2023-12-10T05:52:09.871Z,22.33
2023-12-10T05:57:11.646Z,23.02
2023-12-10T06:02:13.432Z,20.08
2023-12-10T06:07:15.239Z,22.10
2023-12-10T06:12:17.826Z,23.42
2023-12-10T06:17:19.929Z,21.55
2023-12-10T06:22:22.353Z,21.33
2023-12-10T06:27:24.239Z,22.42
2023-12-10T06:32:27.510Z,21.27
2023-12-10T06:37:29.639Z,21.67
2023-12-10T06:42:31.812Z,22.45
2023-12-10T06:47:35.771Z,21.15
2023-12-10T06:52:38.138Z,20.50
2023-12-10T06:57:40.113Z,21.48
2023-12-10T07:02:42.316Z,21.50
2023-12-10T07:07:44.359Z,20.58
2023-12-10T07:12:46.351Z,36.20
2023-12-10T07:17:48.323Z,28.38
2023-12-10T07:22:50.251Z,21.80
2023-12-10T07:27:52.222Z,21.80
2023-12-10T07:32:55.042Z,20.88
2023-12-10T07:37:57.041Z,21.67
2023-12-10T07:42:59.502Z,21.70
2023-12-10T07:48:01.665Z,21.08
2023-12-10T07:53:06.066Z,21.05
2023-12-10T07:58:08.296Z,23.13
2023-12-10T08:03:10.131Z,22.75
2023-12-10T08:08:12.323Z,21.08
2023-12-10T08:13:14.099Z,19.52
2023-12-10T08:18:17.534Z,26.35
2023-12-10T08:23:19.432Z,25.25
2023-12-10T08:28:21.332Z,24.38
2023-12-10T08:33:23.376Z,22.90
2023-12-10T08:38:25.392Z,23.90
2023-12-10T08:43:27.251Z,24.60
2023-12-10T08:48:30.449Z,24.15
2023-12-10T08:53:32.652Z,23.58
2023-12-10T08:58:34.673Z,23.30
2023-12-10T09:03:36.867Z,24.33
2023-12-10T09:08:38.816Z,24.20
2023-12-10T09:13:40.751Z,25.10
2023-12-10T09:18:45.161Z,23.33
2023-12-10T09:23:47.166Z,22.80
2023-12-10T09:28:49.043Z,21.90
2023-12-10T09:33:51.266Z,23.30
2023-12-10T09:38:53.392Z,22.40
2023-12-10T09:43:55.203Z,23.10
2023-12-10T09:48:57.756Z,22.85
2023-12-10T09:53:59.683Z,23.20
2023-12-10T09:59:01.612Z,23.33
2023-12-10T10:04:05.237Z,22.48
2023-12-10T10:09:08.417Z,21.33
2023-12-10T10:14:11.926Z,23.08
2023-12-10T10:19:14.801Z,22.55
2023-12-10T10:24:18.431Z,21.20
2023-12-10T10:29:23.867Z,22.60
2023-12-10T10:34:26.463Z,22.10
2023-12-10T10:39:30.711Z,20.23
2023-12-10T10:44:33.220Z,22.50
2023-12-10T10:49:39.317Z,21.90
2023-12-10T10:54:41.949Z,21.08
2023-12-10T10:59:45.052Z,19.67
2023-12-10T11:04:48.801Z,18.17
2023-12-10T11:09:58.389Z,18.33
2023-12-10T11:15:01.543Z,18.52
2023-12-10T11:20:04.620Z,20.55
2023-12-10T11:25:07.658Z,19.70
2023-12-10T11:30:10.271Z,19.92
2023-12-10T11:35:15.434Z,19.77
2023-12-10T11:40:17.927Z,20.00
2023-12-10T11:45:19.958Z,19.00
2023-12-10T11:50:22.170Z,18.35
2023-12-10T11:55:24.235Z,18.33
2023-12-10T12:00:26.397Z,18.10
2023-12-10T12:05:28.399Z,16.02
2023-12-10T12:10:39.256Z,15.20
2023-12-10T12:15:45.732Z,14.70
2023-12-10T12:20:47.905Z,16.10
2023-12-10T12:25:49.832Z,14.57
2023-12-10T12:30:51.737Z,18.60
2023-12-10T12:35:53.684Z,18.88
2023-12-10T12:40:55.622Z,16.70
2023-12-10T12:45:57.465Z,16.23
2023-12-10T12:50:59.310Z,17.70
2023-12-10T12:56:01.133Z,16.10
2023-12-10T13:01:03.096Z,14.57
2023-12-10T13:06:05.314Z,17.02
2023-12-10T13:11:07.160Z,16.05
2023-12-10T13:16:09.139Z,13.85
2023-12-10T13:21:11.168Z,14.07
2023-12-10T13:26:12.984Z,13.60
2023-12-10T13:31:15.061Z,14.38
2023-12-10T13:36:17.217Z,13.93
2023-12-10T13:41:19.067Z,19.25
2023-12-10T13:46:20.881Z,16.42
2023-12-10T13:51:22.755Z,16.75
2023-12-10T13:56:24.536Z,17.23
2023-12-10T14:01:26.803Z,16.55
2023-12-10T14:06:28.663Z,21.35
2023-12-10T14:11:35.256Z,17.90
2023-12-10T14:16:43.881Z,22.17
2023-12-10T14:21:46.104Z,19.77
2023-12-10T14:26:47.984Z,18.77
2023-12-10T14:31:49.781Z,18.38
2023-12-10T14:36:52.187Z,19.00
2023-12-10T14:41:54.025Z,19.73
2023-12-10T14:47:01.184Z,19.80
2023-12-10T14:52:03.127Z,19.45
2023-12-10T14:57:06.799Z,19.27
2023-12-10T15:02:12.120Z,19.08
2023-12-10T15:07:15.210Z,20.42
2023-12-10T15:12:17.346Z,18.98
2023-12-10T15:17:19.309Z,18.73
2023-12-10T15:22:21.793Z,18.02
2023-12-10T15:27:23.712Z,18.13
2023-12-10T15:32:25.869Z,18.58
2023-12-10T15:37:30.059Z,17.73
2023-12-10T15:42:32.067Z,20.17
2023-12-10T15:47:33.782Z,19.55
2023-12-10T15:52:40.727Z,18.35
2023-12-10T15:57:43.718Z,19.27
2023-12-10T16:02:45.565Z,17.63
2023-12-10T16:07:51.873Z,16.45
2023-12-10T16:12:54.564Z,16.17
2023-12-10T16:17:56.517Z,14.88
2023-12-10T16:22:58.983Z,14.90
2023-12-10T16:28:01.090Z,16.40
2023-12-10T16:33:03.632Z,15.27
2023-12-10T16:38:05.456Z,16.55
2023-12-10T16:43:07.885Z,15.38
2023-12-10T16:48:11.162Z,18.35
2023-12-10T16:53:13.099Z,19.75
2023-12-10T16:58:14.846Z,20.50
2023-12-10T17:03:16.774Z,19.45
2023-12-10T17:08:18.578Z,19.98
2023-12-10T17:13:20.315Z,19.88
2023-12-10T17:18:22.292Z,23.45
2023-12-10T17:23:24.100Z,19.45
2023-12-10T17:28:26.048Z,18.48
2023-12-10T17:33:28.061Z,18.95
2023-12-10T17:38:29.872Z,19.55
2023-12-10T17:43:31.684Z,18.88
2023-12-10T17:48:33.541Z,18.60
2023-12-10T17:53:35.706Z,15.65
2023-12-10T17:58:38.084Z,15.57
2023-12-10T18:03:40.245Z,14.27
2023-12-10T18:08:42.352Z,14.13
2023-12-10T18:13:44.830Z,15.75
2023-12-10T18:18:46.976Z,13.00
2023-12-10T18:23:48.981Z,13.88
2023-12-10T18:28:51.296Z,12.85
2023-12-10T18:33:55.210Z,13.25
2023-12-10T18:38:57.542Z,13.52
2023-12-10T18:44:00.222Z,13.93
2023-12-10T18:49:02.946Z,15.95
2023-12-10T18:54:06.044Z,14.52
2023-12-10T18:59:08.830Z,14.68
2023-12-10T19:04:11.612Z,15.13
2023-12-10T19:09:14.691Z,14.60
2023-12-10T19:14:17.103Z,14.15
2023-12-10T19:19:19.656Z,14.20
2023-12-10T19:24:22.638Z,14.40
2023-12-10T19:29:25.195Z,16.15
2023-12-10T19:34:30.445Z,21.27
2023-12-10T19:39:32.404Z,25.05
2023-12-10T19:44:34.957Z,22.27
2023-12-10T19:49:37.821Z,22.85
2023-12-10T19:54:40.573Z,21.45
2023-12-10T19:59:44.139Z,18.85
2023-12-10T20:04:47.298Z,19.02
2023-12-10T20:09:50.203Z,17.15
2023-12-10T20:14:52.976Z,18.45
2023-12-10T20:19:55.736Z,22.52
2023-12-10T20:25:02.828Z,21.98
2023-12-10T20:30:09.417Z,23.13
2023-12-10T20:35:12.012Z,24.10
2023-12-10T20:40:15.173Z,20.85
2023-12-10T20:45:18.156Z,19.77
2023-12-10T20:50:21.686Z,19.05
2023-12-10T20:55:24.281Z,18.33
2023-12-10T21:00:26.295Z,18.73
2023-12-10T21:05:28.290Z,18.73
2023-12-10T21:10:30.160Z,18.40
2023-12-10T21:15:32.219Z,20.27
2023-12-10T21:20:34.047Z,19.25
2023-12-10T21:25:36.335Z,18.63
2023-12-10T21:30:38.188Z,19.05
2023-12-10T21:35:40.181Z,16.08
2023-12-10T21:40:41.990Z,15.88
2023-12-10T21:45:43.942Z,16.67
2023-12-10T21:50:48.993Z,14.95
2023-12-10T21:55:50.679Z,17.25
2023-12-10T22:00:58.060Z,17.48
2023-12-10T22:05:59.878Z,20.10
2023-12-10T22:11:01.719Z,15.98
2023-12-10T22:16:03.734Z,14.35
2023-12-10T22:21:07.817Z,14.43
2023-12-10T22:26:10.161Z,13.88
2023-12-10T22:31:12.145Z,14.02
2023-12-10T22:36:14.014Z,14.88
2023-12-10T22:41:16.137Z,12.95
2023-12-10T22:46:18.157Z,13.00
2023-12-10T22:51:20.231Z,13.15
2023-12-10T22:56:21.900Z,13.52
2023-12-10T23:01:23.899Z,12.27
2023-12-10T23:06:26.232Z,12.52
2023-12-10T23:11:28.092Z,12.60
2023-12-10T23:16:29.977Z,12.70
2023-12-10T23:21:31.812Z,12.65
2023-12-10T23:26:35.225Z,13.32
2023-12-10T23:31:36.984Z,12.88
2023-12-10T23:36:39.074Z,12.90
2023-12-10T23:41:41.221Z,13.07
2023-12-10T23:46:46.256Z,12.70
2023-12-10T23:51:48.096Z,13.02
2023-12-10T23:56:49.826Z,11.60
